Time;durP1;ratioP1;P1;durP2;ratioP2;P2;SDS_P1;SDS_P2;PMS_P1;PMS_P2;Temp;Humidity;BMP_temperature;BMP_pressure;BME280_temperature;BME280_humidity;BME280_pressure;Samples;Min_cycle;Max_cycle;Signal;HPM_P1;HPM_P2
2023/08/08 00:00:54;;;;;;;3.73;3.10;;;14.80;1.00;;;;;;5041980;28;20442;-86
2023/08/08 00:03:19;;;;;;;5.53;3.33;;;14.80;1.00;;;;;;5071922;28;20204;-86
2023/08/08 00:05:45;;;;;;;6.20;3.43;;;14.80;1.00;;;;;;5066764;28;20202;-85
2023/08/08 00:08:11;;;;;;;5.27;3.20;;;14.80;1.00;;;;;;5064833;28;20306;-86
2023/08/08 00:10:36;;;;;;;6.97;3.73;;;14.80;1.00;;;;;;5054143;28;20181;-87
2023/08/08 00:13:02;;;;;;;5.70;3.67;;;14.70;55.30;;;;;;5070225;28;20247;-86
2023/08/08 00:15:27;;;;;;;6.17;3.83;;;14.70;99.90;;;;;;5068063;28;20180;-87
2023/08/08 00:17:53;;;;;;;9.00;3.80;;;14.60;99.90;;;;;;5070879;28;20177;-85
2023/08/08 00:20:18;;;;;;;5.53;3.67;;;14.70;99.90;;;;;;5065145;28;20189;-86
2023/08/08 00:22:44;;;;;;;8.97;3.73;;;14.60;99.90;;;;;;5059271;28;20251;-86
2023/08/08 00:25:09;;;;;;;5.97;3.37;;;14.60;99.90;;;;;;5066656;28;20195;-85
2023/08/08 00:27:35;;;;;;;4.70;3.43;;;14.60;99.90;;;;;;5055792;28;20204;-85
2023/08/08 00:30:01;;;;;;;4.70;3.37;;;14.50;1.00;;;;;;5063879;28;20268;-86
2023/08/08 00:32:26;;;;;;;9.20;3.40;;;14.50;1.00;;;;;;5067471;28;20235;-85
2023/08/08 00:34:52;;;;;;;4.53;3.40;;;14.50;1.00;;;;;;5062700;28;20459;-85
2023/08/08 00:37:17;;;;;;;4.80;3.47;;;14.40;80.80;;;;;;5049919;28;20185;-86
2023/08/08 00:39:45;;;;;;;9.50;4.00;;;14.40;99.90;;;;;;5069156;28;20264;-86
2023/08/08 00:42:12;;;;;;;4.30;2.70;;;14.40;99.90;;;;;;5051477;28;20189;-86
2023/08/08 00:44:38;;;;;;;7.70;3.83;;;14.40;1.00;;;;;;5067054;28;20467;-86
2023/08/08 00:47:03;;;;;;;5.20;3.63;;;14.30;1.00;;;;;;5061550;28;20610;-85
2023/08/08 00:49:29;;;;;;;4.37;3.57;;;14.30;1.00;;;;;;5052275;28;20451;-84
2023/08/08 00:51:54;;;;;;;8.50;3.70;;;14.30;1.00;;;;;;5056695;28;20188;-85
2023/08/08 00:54:21;;;;;;;4.50;3.43;;;14.30;1.00;;;;;;5044828;28;20681;-85
2023/08/08 00:56:47;;;;;;;4.00;3.17;;;14.30;1.00;;;;;;5050697;28;20175;-85
2023/08/08 00:59:15;;;;;;;6.13;3.13;;;14.30;1.00;;;;;;5038606;28;20921;-85
2023/08/08 01:01:40;;;;;;;5.47;3.20;;;14.30;42.50;;;;;;5039665;28;21847;-86
2023/08/08 01:04:06;;;;;;;8.90;4.20;;;14.30;99.90;;;;;;5042575;28;20470;-85
2023/08/08 01:06:43;;;;;;;8.60;3.40;;;14.30;99.90;;;;;;5055297;28;20200;-84
2023/08/08 01:09:23;;;;;;;5.03;4.20;;;14.20;99.90;;;;;;5062701;28;20469;-85
2023/08/08 01:11:51;;;;;;;6.83;4.00;;;14.20;1.00;;;;;;5044889;28;20504;-85
2023/08/08 01:14:18;;;;;;;7.80;3.90;;;14.20;1.00;;;;;;5044140;28;20619;-84
2023/08/08 01:16:44;;;;;;;6.97;4.07;;;14.20;1.00;;;;;;5056435;28;20467;-85
2023/08/08 01:19:14;;;;;;;6.27;4.53;;;14.10;92.70;;;;;;5057195;28;20458;-85
2023/08/08 01:21:43;;;;;;;3.70;3.27;;;14.10;99.90;;;;;;5053287;28;20440;-85
2023/08/08 01:24:19;;;;;;;6.73;3.40;;;14.10;99.90;;;;;;5050389;28;20609;-85
2023/08/08 01:26:46;;;;;;;4.87;3.90;;;14.10;99.90;;;;;;5036600;28;20438;-84
2023/08/08 01:29:11;;;;;;;5.80;3.80;;;14.10;99.90;;;;;;5063815;28;20459;-84
2023/08/08 01:31:37;;;;;;;5.33;3.20;;;14.00;99.90;;;;;;5050375;28;20770;-85
2023/08/08 01:34:02;;;;;;;6.47;3.83;;;14.10;1.00;;;;;;5058312;28;20196;-85
2023/08/08 01:36:38;;;;;;;8.70;4.30;;;14.10;1.00;;;;;;5065957;28;20180;-85
2023/08/08 01:39:06;;;;;;;6.90;3.50;;;14.00;49.50;;;;;;5051310;28;20200;-85
2023/08/08 01:41:37;;;;;;;8.93;4.30;;;14.00;9.60;;;;;;5066022;28;20442;-85
2023/08/08 01:44:03;;;;;;;6.00;2.80;;;14.00;99.90;;;;;;5058908;28;20454;-85
2023/08/08 01:46:29;;;;;;;7.50;3.13;;;14.00;99.90;;;;;;5063633;28;20443;-88
2023/08/08 01:48:58;;;;;;;6.77;3.67;;;14.00;99.90;;;;;;5064600;28;20211;-87
2023/08/08 01:51:25;;;;;;;6.40;3.53;;;14.00;99.90;;;;;;5068604;28;20448;-86
2023/08/08 01:53:51;;;;;;;9.20;3.27;;;14.00;99.90;;;;;;5062879;28;20462;-86
2023/08/08 01:56:16;;;;;;;7.80;4.13;;;14.00;1.00;;;;;;5069343;28;21013;-87
2023/08/08 01:58:42;;;;;;;5.60;3.73;;;14.00;1.00;;;;;;5064295;28;20217;-86
2023/08/08 02:01:07;;;;;;;5.73;3.57;;;14.00;1.00;;;;;;5062121;28;20194;-85
2023/08/08 02:03:33;;;;;;;4.70;3.20;;;14.00;1.00;;;;;;5065861;28;20193;-86
2023/08/08 02:05:58;;;;;;;6.57;3.20;;;14.00;1.00;;;;;;5063257;28;20218;-84
2023/08/08 02:08:24;;;;;;;8.77;2.90;;;14.00;1.00;;;;;;5065607;28;20200;-86
2023/08/08 02:10:49;;;;;;;7.17;3.70;;;14.00;1.00;;;;;;5061073;28;20212;-85
2023/08/08 02:13:15;;;;;;;6.27;2.83;;;14.00;1.00;;;;;;5056155;28;20213;-86
2023/08/08 02:15:40;;;;;;;8.17;3.40;;;14.00;1.00;;;;;;5050523;28;20185;-86
2023/08/08 02:18:07;;;;;;;6.83;3.23;;;14.10;1.00;;;;;;5050746;28;20722;-84
2023/08/08 02:20:32;;;;;;;6.47;3.30;;;14.10;1.00;;;;;;5052372;28;20195;-84
2023/08/08 02:22:58;;;;;;;5.47;3.47;;;14.10;99.90;;;;;;5036014;28;20439;-85
2023/08/08 02:25:23;;;;;;;3.83;3.27;;;14.10;99.90;;;;;;5052830;28;20184;-84
2023/08/08 02:27:49;;;;;;;2.93;2.50;;;14.10;99.90;;;;;;5050564;28;20192;-85
2023/08/08 02:30:14;;;;;;;4.63;3.30;;;14.10;99.90;;;;;;5043970;28;20199;-85
2023/08/08 02:32:40;;;;;;;7.90;3.07;;;14.00;1.00;;;;;;5054682;28;20736;-85
2023/08/08 02:35:06;;;;;;;9.47;3.40;;;14.00;1.00;;;;;;5052249;28;20351;-83
2023/08/08 02:37:32;;;;;;;8.47;3.20;;;14.00;99.90;;;;;;5055838;28;20177;-85
2023/08/08 02:39:57;;;;;;;6.80;3.77;;;13.90;99.90;;;;;;5053400;28;20461;-86
2023/08/08 02:42:23;;;;;;;7.83;3.33;;;13.90;99.90;;;;;;5050655;28;20188;-84
2023/08/08 02:44:48;;;;;;;7.60;3.47;;;13.90;99.90;;;;;;5054118;28;20196;-86
2023/08/08 02:47:14;;;;;;;7.50;3.77;;;13.90;99.90;;;;;;5055911;28;20189;-86
2023/08/08 02:49:39;;;;;;;11.97;3.50;;;13.90;99.90;;;;;;5045688;28;20240;-84
2023/08/08 02:52:05;;;;;;;8.95;3.20;;;13.80;99.90;;;;;;5043229;28;20189;-84
2023/08/08 02:54:31;;;;;;;5.97;2.80;;;13.80;1.00;;;;;;5048409;28;20188;-87
2023/08/08 02:56:56;;;;;;;7.90;3.17;;;13.80;1.00;;;;;;5044990;28;20261;-85
2023/08/08 02:59:22;;;;;;;6.80;4.27;;;13.80;1.00;;;;;;5050603;28;20203;-85
2023/08/08 03:01:47;;;;;;;7.13;3.87;;;13.70;1.00;;;;;;5035696;28;20179;-84
2023/08/08 03:04:13;;;;;;;6.53;3.53;;;13.70;1.00;;;;;;5043991;28;20182;-84
2023/08/08 03:06:38;;;;;;;5.73;3.80;;;13.80;1.00;;;;;;5062097;28;20196;-86
2023/08/08 03:09:05;;;;;;;5.63;3.57;;;13.70;1.00;;;;;;5066566;28;20225;-86
2023/08/08 03:11:30;;;;;;;12.63;4.37;;;13.70;97.30;;;;;;5065914;28;20182;-84
2023/08/08 03:13:56;;;;;;;8.73;5.03;;;13.70;99.90;;;;;;5049306;28;20455;-85
2023/08/08 03:16:21;;;;;;;5.63;3.60;;;13.70;99.90;;;;;;5063849;28;20181;-86
2023/08/08 03:18:47;;;;;;;10.43;4.00;;;13.60;99.90;;;;;;5067518;28;20213;-87
2023/08/08 03:21:12;;;;;;;10.90;4.50;;;13.60;99.90;;;;;;5064172;28;20164;-86
2023/08/08 03:23:38;;;;;;;10.87;4.50;;;13.70;99.90;;;;;;5064448;28;20622;-87
2023/08/08 03:26:03;;;;;;;9.20;4.10;;;13.60;99.90;;;;;;5067740;28;20186;-87
2023/08/08 03:28:29;;;;;;;13.27;4.10;;;13.60;99.90;;;;;;5067047;28;20224;-85
2023/08/08 03:30:54;;;;;;;7.30;3.63;;;13.60;99.90;;;;;;5050333;28;20177;-86
2023/08/08 03:33:20;;;;;;;9.63;4.53;;;13.60;99.90;;;;;;5061414;28;20212;-86
2023/08/08 03:35:45;;;;;;;10.70;4.37;;;13.60;99.90;;;;;;5066353;28;20187;-86
2023/08/08 03:38:11;;;;;;;10.73;4.37;;;13.60;99.90;;;;;;5060249;28;20208;-86
2023/08/08 03:40:36;;;;;;;7.63;4.13;;;13.60;99.90;;;;;;5061468;28;20190;-86
2023/08/08 03:43:02;;;;;;;8.03;4.10;;;13.60;99.90;;;;;;5066877;28;20189;-86
2023/08/08 03:45:29;;;;;;;11.90;3.80;;;13.60;99.90;;;;;;5065756;28;20178;-86
2023/08/08 03:47:54;;;;;;;12.50;5.00;;;13.60;99.90;;;;;;5065131;28;20190;-85
2023/08/08 03:50:20;;;;;;;9.50;4.10;;;13.60;1.00;;;;;;5061572;28;20446;-87
2023/08/08 03:52:45;;;;;;;6.90;4.13;;;13.70;1.00;;;;;;5037880;28;20205;-84
2023/08/08 03:55:11;;;;;;;7.23;4.50;;;13.70;1.00;;;;;;5051129;28;20646;-86
2023/08/08 03:57:37;;;;;;;10.00;4.93;;;13.80;1.00;;;;;;5046244;28;20561;-86
2023/08/08 04:00:04;;;;;;;8.97;4.93;;;13.80;1.00;;;;;;5049490;28;20460;-84
2023/08/08 04:02:29;;;;;;;12.57;4.77;;;13.90;1.00;;;;;;5036924;28;20196;-85
2023/08/08 04:04:55;;;;;;;15.70;5.20;;;14.00;1.00;;;;;;5043319;28;20493;-84
2023/08/08 04:07:20;;;;;;;11.57;4.83;;;14.00;1.00;;;;;;5049793;28;20522;-85
2023/08/08 04:09:46;;;;;;;9.20;4.67;;;14.10;1.00;;;;;;5047909;28;20218;-85
2023/08/08 04:12:11;;;;;;;12.77;5.50;;;14.10;1.00;;;;;;5041148;28;20191;-84
2023/08/08 04:14:37;;;;;;;12.13;5.23;;;14.10;1.00;;;;;;5050294;28;20614;-85
2023/08/08 04:17:03;;;;;;;8.00;4.77;;;14.20;1.00;;;;;;5038005;28;20180;-85
2023/08/08 04:19:29;;;;;;;14.63;5.70;;;14.20;1.00;;;;;;5048856;28;20304;-85
2023/08/08 04:21:55;;;;;;;11.07;6.17;;;14.30;1.00;;;;;;5047964;28;20873;-85
2023/08/08 04:24:20;;;;;;;12.50;5.90;;;14.30;1.00;;;;;;5049021;28;20549;-85
2023/08/08 04:26:46;;;;;;;11.80;4.93;;;14.30;1.00;;;;;;5050985;28;20265;-84
2023/08/08 04:29:11;;;;;;;11.80;5.10;;;14.40;1.00;;;;;;5052387;28;20618;-86
2023/08/08 04:31:37;;;;;;;8.87;5.20;;;14.40;1.00;;;;;;5055003;28;20184;-86
2023/08/08 04:34:02;;;;;;;9.43;5.20;;;14.50;99.90;;;;;;5055093;28;20239;-87
2023/08/08 04:36:28;;;;;;;8.50;5.23;;;14.50;99.90;;;;;;5053405;28;20577;-84
2023/08/08 04:38:55;;;;;;;10.40;5.27;;;14.50;99.90;;;;;;5048257;28;20207;-85
2023/08/08 04:41:20;;;;;;;7.10;5.40;;;14.60;99.90;;;;;;5061377;28;21001;-86
2023/08/08 04:43:46;;;;;;;8.83;5.43;;;14.60;99.90;;;;;;5068572;28;20435;-86
2023/08/08 04:46:12;;;;;;;12.27;6.30;;;14.60;99.90;;;;;;5069824;28;20172;-86
2023/08/08 04:48:37;;;;;;;16.13;5.87;;;14.60;99.90;;;;;;5068272;28;20207;-85
2023/08/08 04:51:06;;;;;;;6.77;4.57;;;14.70;99.90;;;;;;5070363;28;20435;-85
2023/08/08 04:53:37;;;;;;;12.40;6.03;;;14.70;99.90;;;;;;5069637;28;20218;-86
2023/08/08 04:56:03;;;;;;;10.33;5.87;;;14.80;99.90;;;;;;5069492;28;20412;-86
2023/08/08 04:58:28;;;;;;;9.30;5.60;;;14.80;99.90;;;;;;5064035;28;20473;-87
2023/08/08 05:00:54;;;;;;;11.10;5.33;;;14.90;99.90;;;;;;5068811;28;20431;-85
2023/08/08 05:03:20;;;;;;;10.93;4.80;;;15.00;99.90;;;;;;5069916;28;20260;-86
2023/08/08 05:05:46;;;;;;;6.83;4.10;;;15.10;80.40;;;;;;5070873;28;20423;-86
2023/08/08 05:08:12;;;;;;;15.60;5.03;;;15.20;1.00;;;;;;5071092;28;20306;-86
2023/08/08 05:10:38;;;;;;;10.97;4.33;;;15.40;1.00;;;;;;5064014;28;20181;-87
2023/08/08 05:13:04;;;;;;;11.53;5.33;;;15.60;99.90;;;;;;5057924;28;20471;-85
2023/08/08 05:15:29;;;;;;;13.07;5.00;;;15.60;1.00;;;;;;5069338;28;20193;-86
2023/08/08 05:17:55;;;;;;;13.90;5.40;;;15.70;1.00;;;;;;5059461;28;20182;-87
2023/08/08 05:20:21;;;;;;;8.70;4.43;;;15.80;99.90;;;;;;5048871;28;20221;-86
2023/08/08 05:22:47;;;;;;;15.30;4.40;;;16.00;1.00;;;;;;5051245;28;20191;-85
2023/08/08 05:25:13;;;;;;;8.97;4.53;;;16.10;1.00;;;;;;5050672;28;20513;-85
2023/08/08 05:27:39;;;;;;;8.17;4.30;;;16.30;1.00;;;;;;5046741;28;20192;-85
2023/08/08 05:30:05;;;;;;;12.53;4.83;;;16.50;99.90;;;;;;5047082;28;20214;-84
2023/08/08 05:32:31;;;;;;;10.37;5.07;;;16.40;1.00;;;;;;5054338;28;20982;-86
2023/08/08 05:34:57;;;;;;;9.20;4.30;;;16.30;59.90;;;;;;5045292;28;20491;-86
2023/08/08 05:37:23;;;;;;;9.97;4.43;;;16.20;99.90;;;;;;5038344;28;20432;-85
2023/08/08 05:39:49;;;;;;;14.07;4.50;;;16.20;96.10;;;;;;5055490;28;21010;-85
2023/08/08 05:42:14;;;;;;;12.93;4.60;;;16.10;99.90;;;;;;5054362;28;20454;-86
2023/08/08 05:44:41;;;;;;;12.20;4.23;;;16.20;99.90;;;;;;5056286;28;20835;-84
2023/08/08 05:47:07;;;;;;;11.17;3.97;;;16.10;99.90;;;;;;5051769;28;20170;-84
2023/08/08 05:49:32;;;;;;;8.30;4.00;;;16.10;99.90;;;;;;5035062;28;20461;-86
2023/08/08 05:51:58;;;;;;;16.07;4.50;;;16.10;99.90;;;;;;5059964;28;20205;-86
2023/08/08 05:54:23;;;;;;;6.10;3.57;;;16.10;99.90;;;;;;5050422;28;20808;-85
2023/08/08 05:56:49;;;;;;;11.70;3.80;;;16.30;67.40;;;;;;5052191;28;20191;-86
2023/08/08 05:59:14;;;;;;;9.83;3.43;;;16.70;1.00;;;;;;5046450;28;20202;-85
2023/08/08 06:01:40;;;;;;;8.60;3.23;;;17.50;99.90;;;;;;5054691;28;20192;-84
2023/08/08 06:04:05;;;;;;;13.70;4.03;;;17.40;1.00;;;;;;5050948;28;20193;-87
2023/08/08 06:06:31;;;;;;;9.50;3.30;;;17.20;1.00;;;;;;5051204;28;20784;-85
2023/08/08 06:08:57;;;;;;;10.57;3.77;;;17.00;1.00;;;;;;5051984;28;20212;-84
2023/08/08 06:11:22;;;;;;;9.30;3.27;;;17.00;99.90;;;;;;5049329;28;20247;-85
2023/08/08 06:13:49;;;;;;;6.77;4.07;;;17.10;1.00;;;;;;5039186;28;20248;-84
2023/08/08 06:16:15;;;;;;;9.07;3.70;;;16.90;1.00;;;;;;5055062;28;20183;-85
2023/08/08 06:18:41;;;;;;;8.83;3.93;;;16.90;99.90;;;;;;5046666;28;20454;-85
2023/08/08 06:21:06;;;;;;;8.83;3.53;;;17.70;1.00;;;;;;5047241;28;20513;-85
2023/08/08 06:23:32;;;;;;;13.67;4.80;;;17.70;99.90;;;;;;5052706;28;20189;-83
2023/08/08 06:25:58;;;;;;;8.87;3.47;;;17.80;99.90;;;;;;5048170;28;20189;-84
2023/08/08 06:28:23;;;;;;;10.40;5.17;;;18.10;99.90;;;;;;5031647;28;20233;-83
2023/08/08 06:30:49;;;;;;;9.10;3.60;;;18.40;99.90;;;;;;5052278;28;20626;-85
2023/08/08 06:33:14;;;;;;;8.83;4.20;;;18.70;99.90;;;;;;5051415;28;20247;-85
2023/08/08 06:35:40;;;;;;;10.33;3.43;;;18.90;13.10;;;;;;5041887;28;20181;-84
2023/08/08 06:38:06;;;;;;;10.40;3.90;;;18.80;1.00;;;;;;5035418;28;20341;-86
2023/08/08 06:40:31;;;;;;;13.57;5.70;;;18.60;3.40;;;;;;5051848;28;20434;-87
2023/08/08 06:42:57;;;;;;;8.63;4.00;;;18.60;32.20;;;;;;5047237;28;20181;-85
2023/08/08 06:45:22;;;;;;;9.80;4.47;;;18.70;1.00;;;;;;5037197;28;20544;-85
2023/08/08 06:47:49;;;;;;;10.70;3.70;;;18.70;1.00;;;;;;5052326;28;20189;-85
2023/08/08 06:50:14;;;;;;;7.13;3.30;;;18.50;4.40;;;;;;5049366;28;20186;-86
2023/08/08 06:52:40;;;;;;;12.20;4.10;;;18.60;83.70;;;;;;5053759;28;20525;-85
2023/08/08 06:55:06;;;;;;;10.33;4.20;;;20.60;1.00;;;;;;5024335;28;20176;-85
2023/08/08 06:57:33;;;;;;;8.27;4.50;;;20.60;1.00;;;;;;5052467;28;20261;-85
2023/08/08 06:59:59;;;;;;;11.33;3.87;;;21.20;1.00;;;;;;5053087;28;20431;-85
2023/08/08 07:02:24;;;;;;;10.67;4.90;;;21.40;1.00;;;;;;5052820;28;20418;-86
2023/08/08 07:04:50;;;;;;;7.27;3.30;;;21.00;1.00;;;;;;5052419;28;20188;-85
2023/08/08 07:07:16;;;;;;;9.40;3.70;;;20.60;1.00;;;;;;5033507;28;20187;-85
2023/08/08 07:09:42;;;;;;;8.37;3.93;;;21.50;1.00;;;;;;5048556;28;20216;-85
2023/08/08 07:12:07;;;;;;;9.53;3.97;;;21.40;1.00;;;;;;5050204;28;20430;-85
2023/08/08 07:14:33;;;;;;;7.63;3.57;;;21.40;1.00;;;;;;5034223;28;20215;-86
2023/08/08 07:16:59;;;;;;;10.87;4.17;;;23.20;1.00;;;;;;5033309;28;20760;-85
2023/08/08 07:19:25;;;;;;;7.07;3.40;;;23.10;1.00;;;;;;5037465;28;20202;-86
2023/08/08 07:21:50;;;;;;;9.67;4.57;;;22.30;1.00;;;;;;5052209;28;20192;-85
2023/08/08 07:24:16;;;;;;;5.47;3.60;;;21.50;1.00;;;;;;5052890;28;20413;-85
2023/08/08 07:26:42;;;;;;;12.93;4.90;;;20.80;1.00;;;;;;5049091;28;20183;-84
2023/08/08 07:29:07;;;;;;;10.93;3.50;;;20.40;1.00;;;;;;5023405;28;20442;-85
2023/08/08 07:31:33;;;;;;;13.13;4.63;;;20.30;1.00;;;;;;5031907;28;20281;-85
2023/08/08 07:33:59;;;;;;;9.23;3.93;;;20.20;1.00;;;;;;5033199;28;20217;-85
2023/08/08 07:36:25;;;;;;;11.57;4.40;;;20.60;1.00;;;;;;5032003;28;20188;-85
2023/08/08 07:38:50;;;;;;;7.93;3.47;;;21.60;1.00;;;;;;5049598;28;20212;-86
2023/08/08 07:41:16;;;;;;;9.63;4.07;;;21.40;1.00;;;;;;5032128;28;20519;-84
2023/08/08 07:43:41;;;;;;;12.70;4.80;;;21.10;1.00;;;;;;5043805;28;20222;-85
2023/08/08 07:46:07;;;;;;;9.77;4.63;;;20.50;1.00;;;;;;5056640;28;20186;-87
2023/08/08 07:48:32;;;;;;;10.63;5.20;;;19.90;1.00;;;;;;5040615;28;20206;-85
2023/08/08 07:50:58;;;;;;;10.30;4.60;;;19.30;1.00;;;;;;5040123;28;20207;-86
2023/08/08 07:53:23;;;;;;;11.47;4.60;;;18.90;1.00;;;;;;5047211;28;20216;-86
2023/08/08 07:55:49;;;;;;;15.00;5.27;;;18.60;1.00;;;;;;5060787;28;20563;-86
2023/08/08 07:58:14;;;;;;;12.87;4.60;;;18.40;1.00;;;;;;5051306;28;20726;-84
2023/08/08 08:00:40;;;;;;;15.00;5.73;;;18.20;1.00;;;;;;5050988;28;20184;-85
2023/08/08 08:03:06;;;;;;;15.20;6.20;;;18.10;99.90;;;;;;5047723;28;20196;-86
2023/08/08 08:05:34;;;;;;;8.90;5.40;;;17.80;99.90;;;;;;5040065;28;20470;-86
2023/08/08 08:07:59;;;;;;;18.60;7.57;;;17.70;99.90;;;;;;5043651;28;20177;-86
2023/08/08 08:10:25;;;;;;;13.47;5.73;;;17.60;1.00;;;;;;5042451;28;20556;-85
2023/08/08 08:12:57;;;;;;;9.87;5.03;;;17.60;1.00;;;;;;5041689;28;20213;-86
2023/08/08 08:15:23;;;;;;;10.30;4.93;;;17.70;1.00;;;;;;5034882;28;20659;-85
2023/08/08 08:17:49;;;;;;;11.33;5.07;;;17.90;1.00;;;;;;5039484;28;20448;-85
2023/08/08 08:20:14;;;;;;;8.40;4.57;;;18.00;1.00;;;;;;5043637;28;20425;-85
2023/08/08 08:22:40;;;;;;;13.43;4.57;;;18.10;99.90;;;;;;5044769;28;20771;-86
2023/08/08 08:25:08;;;;;;;7.67;4.73;;;18.20;99.90;;;;;;5063837;28;20178;-85
2023/08/08 08:27:37;;;;;;;9.97;5.87;;;18.20;99.90;;;;;;5062068;28;20554;-84
2023/08/08 08:30:08;;;;;;;9.37;4.87;;;18.20;99.90;;;;;;5052817;28;20485;-84
2023/08/08 08:32:34;;;;;;;11.07;4.97;;;18.40;99.90;;;;;;5041405;28;20479;-85
2023/08/08 08:35:02;;;;;;;12.03;5.43;;;18.50;99.90;;;;;;5037960;28;20446;-85
2023/08/08 08:37:28;;;;;;;9.13;4.70;;;18.70;99.90;;;;;;5038316;28;20467;-85
2023/08/08 08:39:53;;;;;;;9.20;4.70;;;18.70;34.10;;;;;;5045076;28;20470;-86
2023/08/08 08:42:19;;;;;;;10.60;4.70;;;18.50;54.10;;;;;;5052830;28;20190;-85
2023/08/08 08:44:46;;;;;;;12.40;4.23;;;18.40;99.90;;;;;;5036385;28;20190;-85
2023/08/08 08:47:14;;;;;;;8.37;4.70;;;18.30;99.90;;;;;;5036619;28;20416;-85
2023/08/08 08:49:43;;;;;;;13.80;5.30;;;18.20;99.90;;;;;;5036691;28;20437;-84
2023/08/08 08:52:09;;;;;;;9.87;5.10;;;18.10;99.90;;;;;;5035889;28;20421;-85
2023/08/08 08:54:35;;;;;;;10.10;5.00;;;18.10;99.90;;;;;;5052151;28;20520;-85
2023/08/08 08:57:00;;;;;;;13.10;5.43;;;18.20;99.90;;;;;;5052220;28;20447;-86
2023/08/08 08:59:26;;;;;;;9.50;5.30;;;18.10;99.90;;;;;;5044422;28;20194;-85
2023/08/08 09:01:52;;;;;;;9.87;5.13;;;18.00;99.90;;;;;;5034838;28;20550;-83
2023/08/08 09:04:19;;;;;;;10.43;5.33;;;18.10;99.90;;;;;;5035281;28;20180;-85
2023/08/08 09:06:46;;;;;;;11.20;4.40;;;18.10;99.90;;;;;;5034995;28;20428;-85
2023/08/08 09:09:13;;;;;;;16.10;6.10;;;18.40;99.90;;;;;;5034892;28;20494;-85
2023/08/08 09:11:39;;;;;;;14.10;4.80;;;19.30;99.90;;;;;;5039683;28;20466;-85
2023/08/08 09:14:16;;;;;;;7.87;5.30;;;20.50;1.00;;;;;;5035923;28;20952;-86
2023/08/08 09:16:42;;;;;;;10.33;5.50;;;21.10;1.00;;;;;;5052792;28;20418;-86
2023/08/08 09:19:08;;;;;;;10.63;5.90;;;21.50;1.00;;;;;;5041287;28;20452;-85
2023/08/08 09:21:34;;;;;;;7.60;4.60;;;21.40;1.00;;;;;;5051576;28;20411;-85
2023/08/08 09:23:59;;;;;;;13.40;5.20;;;20.90;1.00;;;;;;5052132;28;20545;-86
2023/08/08 09:26:25;;;;;;;11.37;5.70;;;20.80;1.00;;;;;;5039152;28;20247;-85
2023/08/08 09:28:51;;;;;;;8.67;5.07;;;20.60;1.00;;;;;;5039407;28;20291;-85
2023/08/08 09:31:17;;;;;;;11.40;5.03;;;20.60;1.00;;;;;;5053217;28;20196;-84
2023/08/08 09:33:43;;;;;;;10.37;7.70;;;20.80;1.00;;;;;;5057460;28;20203;-87
2023/08/08 09:36:16;;;;;;;10.20;4.83;;;20.60;1.00;;;;;;5058906;28;20184;-84
2023/08/08 09:38:42;;;;;;;13.37;4.87;;;20.50;1.00;;;;;;5043240;28;21084;-85
2023/08/08 09:41:07;;;;;;;15.27;4.87;;;20.50;1.00;;;;;;5060008;28;20444;-85
2023/08/08 09:43:33;;;;;;;12.77;5.10;;;20.60;1.00;;;;;;5040973;28;20205;-86
2023/08/08 09:45:59;;;;;;;11.73;5.03;;;20.60;1.00;;;;;;5055494;28;20191;-87
2023/08/08 09:48:33;;;;;;;5.90;4.37;;;20.90;1.00;;;;;;5049662;28;20317;-85
2023/08/08 09:50:59;;;;;;;6.70;5.30;;;21.10;1.00;;;;;;5035395;28;20193;-87
2023/08/08 09:53:27;;;;;;;9.67;4.20;;;21.30;1.00;;;;;;5048344;28;20588;-86
2023/08/08 09:55:57;;;;;;;5.43;4.10;;;21.70;1.00;;;;;;5055405;28;20430;-85
2023/08/08 09:58:23;;;;;;;13.47;3.80;;;21.80;1.00;;;;;;5039318;28;21100;-85
2023/08/08 10:00:50;;;;;;;11.77;4.10;;;21.80;1.00;;;;;;5038163;28;20442;-85
2023/08/08 10:03:17;;;;;;;16.70;4.73;;;21.60;1.00;;;;;;5037253;28;20435;-86
2023/08/08 10:05:43;;;;;;;10.00;3.83;;;21.50;1.00;;;;;;5049897;28;20972;-85
2023/08/08 10:08:09;;;;;;;10.13;4.40;;;21.30;1.00;;;;;;5051600;28;21024;-85
2023/08/08 10:10:36;;;;;;;5.87;3.53;;;21.10;1.00;;;;;;5045725;28;20460;-85
2023/08/08 10:13:02;;;;;;;10.90;4.70;;;20.80;1.00;;;;;;5045202;28;20225;-86
2023/08/08 10:15:28;;;;;;;7.57;3.97;;;20.50;1.00;;;;;;5034083;28;20445;-84
2023/08/08 10:17:57;;;;;;;5.80;3.47;;;20.20;1.00;;;;;;5034280;28;20183;-85
2023/08/08 10:20:25;;;;;;;11.67;3.87;;;19.90;1.00;;;;;;5032105;28;20184;-85
2023/08/08 10:22:54;;;;;;;6.60;3.67;;;19.70;1.00;;;;;;5032067;28;20441;-85
2023/08/08 10:25:25;;;;;;;9.00;4.27;;;19.70;1.00;;;;;;5042011;28;20579;-84
2023/08/08 10:28:05;;;;;;;11.80;4.07;;;19.70;1.00;;;;;;5033430;28;20418;-85
2023/08/08 10:30:42;;;;;;;6.83;3.73;;;19.70;1.00;;;;;;5034524;28;20933;-85
2023/08/08 10:33:23;;;;;;;4.80;3.20;;;19.80;1.00;;;;;;5033737;28;20467;-85
2023/08/08 10:36:02;;;;;;;6.33;3.37;;;19.90;1.00;;;;;;5045750;28;20425;-84
2023/08/08 10:38:42;;;;;;;8.30;3.60;;;19.90;1.00;;;;;;5044868;28;20432;-85
2023/08/08 10:41:12;;;;;;;10.87;4.03;;;19.70;1.00;;;;;;5032549;28;21113;-84
2023/08/08 10:43:38;;;;;;;7.70;3.80;;;19.40;1.00;;;;;;5036634;28;20439;-87
2023/08/08 10:46:04;;;;;;;4.83;3.53;;;19.20;1.00;;;;;;5035490;28;20427;-86
2023/08/08 10:48:30;;;;;;;6.43;4.10;;;19.00;1.00;;;;;;5050056;28;20536;-86
2023/08/08 10:50:59;;;;;;;8.63;4.30;;;19.00;1.00;;;;;;5059629;28;20438;-86
2023/08/08 10:53:26;;;;;;;8.80;4.00;;;19.00;1.00;;;;;;5060556;28;20503;-87
2023/08/08 10:56:03;;;;;;;7.20;4.37;;;19.00;1.00;;;;;;5047937;28;20431;-85
2023/08/08 10:58:36;;;;;;;11.10;4.40;;;19.00;1.00;;;;;;5052757;28;20535;-85
2023/08/08 11:01:05;;;;;;;8.97;3.50;;;19.10;1.00;;;;;;5057304;28;20414;-85
2023/08/08 11:03:31;;;;;;;5.70;3.33;;;19.10;1.00;;;;;;5044930;28;20424;-85
2023/08/08 11:05:57;;;;;;;6.40;3.93;;;19.30;1.00;;;;;;5037047;28;20439;-85
2023/08/08 11:08:23;;;;;;;7.20;3.60;;;19.40;1.00;;;;;;5038823;28;21170;-86
2023/08/08 11:10:52;;;;;;;5.00;3.00;;;19.40;1.00;;;;;;5052924;28;20693;-85
2023/08/08 11:13:17;;;;;;;9.17;3.00;;;19.40;1.00;;;;;;5036728;28;20466;-86
2023/08/08 11:15:43;;;;;;;4.77;2.83;;;19.30;1.00;;;;;;5048173;28;20475;-85
2023/08/08 11:18:09;;;;;;;6.93;3.40;;;19.20;1.00;;;;;;5057370;28;20222;-85
2023/08/08 11:20:36;;;;;;;7.90;3.57;;;19.20;1.00;;;;;;5031912;28;20185;-85
2023/08/08 11:23:03;;;;;;;6.23;2.83;;;19.20;1.00;;;;;;5036954;28;20434;-84
2023/08/08 11:25:30;;;;;;;9.70;3.93;;;19.20;1.00;;;;;;5034805;28;20467;-85
2023/08/08 11:27:57;;;;;;;5.20;3.23;;;19.30;1.00;;;;;;5052733;28;20422;-85
2023/08/08 11:30:23;;;;;;;4.30;2.67;;;19.40;1.00;;;;;;5031806;28;20447;-85
2023/08/08 11:32:50;;;;;;;8.13;3.30;;;19.40;1.00;;;;;;5043280;28;20467;-85
2023/08/08 11:35:18;;;;;;;7.40;3.50;;;19.50;1.00;;;;;;5045409;28;20460;-87
2023/08/08 11:37:45;;;;;;;9.53;4.70;;;19.50;1.00;;;;;;5048611;28;21027;-85
2023/08/08 11:40:12;;;;;;;9.50;5.00;;;19.60;1.00;;;;;;5053237;28;20482;-86
2023/08/08 11:42:38;;;;;;;6.63;4.30;;;19.60;1.00;;;;;;5055210;28;20444;-85
2023/08/08 11:45:04;;;;;;;11.23;5.17;;;19.60;1.00;;;;;;5055933;28;20922;-83
2023/08/08 11:47:35;;;;;;;10.13;5.97;;;19.50;1.00;;;;;;5049807;28;20982;-85
2023/08/08 11:50:01;;;;;;;8.37;5.20;;;19.20;1.00;;;;;;5039501;28;20500;-85
2023/08/08 11:52:28;;;;;;;10.93;6.27;;;18.80;99.90;;;;;;5056843;28;20448;-84
2023/08/08 11:54:53;;;;;;;10.37;5.27;;;18.50;1.00;;;;;;5057458;28;20436;-85
2023/08/08 11:57:19;;;;;;;12.10;5.30;;;18.30;1.00;;;;;;5061651;28;20992;-86
2023/08/08 11:59:44;;;;;;;7.23;4.30;;;18.10;1.00;;;;;;5047436;28;20240;-85
2023/08/08 12:02:11;;;;;;;5.93;4.17;;;18.00;99.90;;;;;;5049986;28;20209;-85
2023/08/08 12:04:36;;;;;;;8.20;4.67;;;17.90;99.90;;;;;;5048504;28;20183;-84
2023/08/08 12:07:03;;;;;;;6.50;4.83;;;17.90;1.00;;;;;;5043967;28;20443;-86
2023/08/08 12:09:35;;;;;;;9.20;4.93;;;18.00;1.00;;;;;;5054581;28;20224;-86
2023/08/08 12:12:01;;;;;;;6.00;5.10;;;18.50;1.00;;;;;;5054652;28;20446;-86
2023/08/08 12:14:27;;;;;;;4.60;3.73;;;18.80;4.20;;;;;;5054500;28;20889;-86
2023/08/08 12:16:54;;;;;;;4.53;3.90;;;19.00;1.00;;;;;;5049351;28;20520;-86
2023/08/08 12:19:23;;;;;;;10.00;3.83;;;19.00;99.90;;;;;;5049672;28;20277;-86
2023/08/08 12:21:49;;;;;;;9.80;4.40;;;19.40;99.90;;;;;;5056267;28;20452;-87
2023/08/08 12:24:14;;;;;;;10.43;4.20;;;20.20;99.90;;;;;;5053850;28;20437;-86
2023/08/08 12:26:40;;;;;;;6.37;4.10;;;20.50;1.00;;;;;;5064934;28;20221;-86
2023/08/08 12:29:05;;;;;;;5.77;3.63;;;20.80;1.00;;;;;;5058734;28;20219;-86
2023/08/08 12:31:31;;;;;;;7.57;3.73;;;21.70;1.00;;;;;;5045579;28;20285;-86
2023/08/08 12:33:56;;;;;;;5.83;3.77;;;22.30;1.00;;;;;;5051506;28;20199;-86
2023/08/08 12:36:22;;;;;;;7.07;3.60;;;22.70;1.00;;;;;;5059291;28;20704;-87
2023/08/08 12:38:47;;;;;;;7.33;3.50;;;23.90;1.00;;;;;;5054874;28;20209;-88
2023/08/08 12:41:13;;;;;;;6.07;3.60;;;24.80;1.00;;;;;;5056127;28;20193;-86
2023/08/08 12:43:39;;;;;;;4.17;2.73;;;25.80;1.00;;;;;;5041025;28;20235;-85
2023/08/08 12:46:05;;;;;;;5.13;2.63;;;26.60;99.90;;;;;;5035500;28;20682;-86